createdAt,value
2019-05-29T04:58:34.965Z,77.8
2019-05-29T06:26:23.659Z,71.9
2019-05-29T06:28:53.680Z,71.8
2019-05-29T06:29:41.855Z,71.8
2019-05-29T06:32:06.605Z,71.9
2019-05-29T06:33:00.846Z,71.9
2019-05-29T06:34:37.511Z,72.1
2019-05-29T06:35:24.922Z,71.9
2019-05-29T06:36:13.170Z,72.1
2019-05-29T06:36:43.779Z,72.1
2019-05-29T06:37:05.646Z,71.9
2019-05-29T06:39:31.085Z,71.9
2019-05-29T06:40:18.717Z,71.9
2019-05-29T06:42:00.723Z,71.8
2019-05-29T06:42:48.770Z,71.8
2019-05-29T06:44:25.315Z,71.9
2019-05-29T06:46:55.998Z,72.1
2019-05-29T07:41:09.889Z,68.8
2019-05-29T07:43:40.000Z,67.7
2019-05-29T07:44:28.164Z,67.5
2019-05-29T10:20:27.684Z,57.2
2019-05-29T10:22:05.561Z,57.4
2019-05-29T10:31:59.829Z,56.9
2019-05-29T11:13:06.774Z,49.6
2019-05-29T11:14:43.390Z,48.6
2019-05-29T12:44:24.909Z,52.9
2019-05-29T12:46:01.881Z,52.0
2019-05-29T12:49:19.978Z,52.2
2019-05-29T12:55:08.077Z,50.9
2019-05-29T13:00:51.739Z,43.7
2019-05-29T13:01:40.895Z,42.7
2019-05-29T13:02:28.213Z,43.5
2019-05-29T13:05:13.097Z,43.8
2019-05-29T13:05:46.929Z,45.5
2019-05-29T13:06:35.328Z,45.5
2019-05-29T13:07:29.609Z,44.9
2019-05-29T13:09:05.731Z,44.3
2019-05-29T13:09:54.323Z,43.3
2019-05-29T13:10:42.419Z,42.2
2019-05-29T13:12:24.458Z,40.4
2019-05-29T13:13:13.382Z,40.7
2019-05-29T13:14:02.592Z,41.1
2019-05-29T13:14:49.511Z,40.2
2019-05-29T13:15:43.185Z,39.7
2019-05-29T13:16:31.547Z,39.2
2019-05-29T13:17:20.513Z,39.1
2019-05-29T13:18:10.115Z,38.6
2019-05-29T13:19:50.338Z,36.6
2019-05-29T13:22:15.483Z,37.8
2019-05-29T13:23:05.433Z,38.7
2019-05-29T13:24:01.901Z,39.2
2019-05-29T13:24:45.902Z,38.8
2019-05-29T13:25:34.303Z,39.1
2019-05-29T13:26:22.685Z,38.7
2019-05-29T13:27:11.033Z,39.3
2019-05-29T13:28:06.098Z,40.1
2019-05-29T13:28:53.080Z,39.8
2019-05-29T13:29:41.434Z,40.0
2019-05-29T13:30:29.796Z,39.1
2019-05-29T13:31:18.160Z,39.2
2019-05-29T13:32:12.435Z,38.3
2019-05-29T13:33:03.612Z,37.6
2019-05-29T13:33:48.541Z,38.5
2019-05-29T13:34:36.897Z,38.4
2019-05-29T13:35:25.273Z,38.9
2019-05-29T13:36:19.534Z,38.7
2019-05-29T13:37:09.283Z,38.9
2019-05-29T13:37:56.811Z,38.5
2019-05-29T13:38:44.006Z,38.0
2019-05-29T13:39:32.340Z,37.2
2019-05-29T13:40:26.613Z,37.5
2019-05-29T13:41:14.346Z,38.1
2019-05-29T13:42:08.825Z,37.1
2019-05-29T13:42:51.100Z,36.8
2019-05-29T13:43:39.476Z,36.1
2019-05-29T13:44:33.664Z,35.4
2019-05-29T13:45:21.482Z,35.9
2019-05-29T13:46:09.840Z,35.6
2019-05-29T13:46:59.743Z,35.6
2019-05-29T13:47:46.602Z,35.6
2019-05-29T13:48:40.874Z,35.7
2019-05-29T13:49:28.646Z,36.3
2019-05-29T13:50:17.089Z,37.0
2019-05-29T13:51:53.780Z,38.0
2019-05-29T13:52:48.190Z,38.5
2019-05-29T13:53:36.407Z,38.2
2019-05-29T13:54:24.285Z,37.9
2019-05-29T13:55:12.632Z,37.4
2019-05-29T13:56:01.904Z,36.8
2019-05-29T13:56:54.684Z,37.0
2019-05-29T13:57:43.666Z,36.8
2019-05-29T13:58:31.353Z,36.4
2019-05-29T13:59:19.760Z,36.9
2019-05-29T14:00:31.656Z,37.3
2019-05-29T14:01:02.463Z,38.3
2019-05-29T14:01:50.781Z,39.3
2019-05-29T14:02:38.537Z,39.2
2019-05-29T14:03:09.515Z,39.2
2019-05-29T14:03:18.400Z,38.9
2019-05-29T14:04:06.943Z,39.5
2019-05-29T14:05:02.649Z,40.2
2019-05-29T14:05:49.370Z,40.2
2019-05-29T14:06:37.162Z,40.5
2019-05-29T14:07:25.492Z,40.6
2019-05-29T14:08:13.896Z,42.0
2019-05-29T14:09:08.097Z,41.7
2019-05-29T14:09:56.433Z,42.6
2019-05-29T14:10:44.232Z,42.8
2019-05-29T14:11:32.591Z,43.1
2019-05-29T14:12:20.948Z,43.1
2019-05-29T14:13:14.598Z,43.0
2019-05-29T14:14:04.118Z,43.8
2019-05-29T14:14:51.311Z,44.2
2019-05-29T14:15:39.628Z,44.3
2019-05-29T14:16:27.972Z,46.0
2019-05-29T14:17:21.676Z,45.3
2019-05-29T14:18:10.508Z,44.8
2019-05-29T14:18:58.350Z,45.8
2019-05-29T14:19:46.727Z,45.6
2019-05-29T14:20:34.937Z,45.6
2019-05-29T14:21:28.590Z,45.2
2019-05-29T14:22:17.614Z,44.6
2019-05-29T14:23:05.364Z,44.6
2019-05-29T14:23:53.608Z,44.6
2019-05-29T14:24:41.887Z,43.3
2019-05-29T14:25:35.588Z,43.6
2019-05-29T14:26:24.938Z,44.1
2019-05-29T14:27:12.698Z,42.8
2019-05-29T14:28:00.837Z,42.7
2019-05-29T14:28:49.136Z,42.9
2019-05-29T14:29:42.565Z,42.6
2019-05-29T14:30:31.807Z,42.6
2019-05-29T14:31:19.299Z,42.4
2019-05-29T14:32:07.558Z,43.2
2019-05-29T14:32:55.907Z,42.4
2019-05-29T14:33:49.565Z,43.4
2019-05-29T14:34:38.467Z,43.5
2019-05-29T14:35:26.289Z,44.5
2019-05-29T14:36:14.556Z,44.0
2019-05-29T14:37:04.648Z,44.0
2019-05-29T14:37:56.557Z,44.6
2019-05-29T14:38:45.403Z,44.7
2019-05-29T14:39:33.250Z,44.7
2019-05-29T14:40:21.581Z,44.5
2019-05-29T14:41:09.999Z,44.9
2019-05-29T14:42:04.305Z,44.8
2019-05-29T14:42:52.428Z,45.2
2019-05-29T14:43:40.278Z,45.4
2019-05-29T14:44:28.601Z,45.3
2019-05-29T14:45:16.954Z,45.2
2019-05-29T14:46:10.620Z,45.2
2019-05-29T14:46:59.468Z,45.1
2019-05-29T14:47:47.286Z,45.7
2019-05-29T14:48:35.601Z,45.3
2019-05-29T14:49:26.839Z,45.5
2019-05-29T14:50:17.613Z,45.0
2019-05-29T14:51:06.636Z,44.7
2019-05-29T14:51:54.267Z,44.6
2019-05-29T14:52:42.596Z,44.7
2019-05-29T14:53:30.900Z,44.9
2019-05-29T14:54:40.768Z,44.5
2019-05-29T14:55:17.530Z,44.9
2019-05-29T14:56:49.588Z,43.9
2019-05-29T14:57:37.849Z,45.3
2019-05-29T14:58:31.466Z,44.7
2019-05-29T14:59:19.952Z,44.5
2019-05-29T15:00:22.200Z,44.5
2019-05-29T15:00:56.408Z,44.8
2019-05-29T15:01:44.726Z,45.4
2019-05-29T15:02:38.383Z,44.2
2019-05-29T15:03:26.730Z,44.0
2019-05-29T15:04:15.603Z,45.2
2019-05-29T15:05:03.762Z,44.5
2019-05-29T15:05:51.661Z,44.8
2019-05-29T15:06:45.319Z,44.9
2019-05-29T15:07:33.633Z,45.0
2019-05-29T15:08:22.561Z,44.9
2019-05-29T15:09:10.298Z,44.9
2019-05-29T15:09:58.616Z,45.4
2019-05-29T15:10:52.288Z,44.3
2019-05-29T15:11:40.615Z,44.8
2019-05-29T15:24:01.857Z,47.1
2019-05-29T15:25:03.166Z,47.2
2019-05-29T15:25:38.245Z,47.3
2019-05-29T15:26:26.550Z,47.7
2019-05-29T15:27:20.815Z,47.7
2019-05-29T15:28:08.572Z,47.7
2019-05-29T15:28:56.825Z,47.7
2019-05-29T15:29:45.125Z,47.7
2019-05-29T15:30:33.433Z,48.2
2019-05-29T15:31:27.685Z,47.9
2019-05-29T15:32:16.555Z,47.5
2019-05-29T15:33:03.698Z,48.2
2019-05-29T15:33:52.037Z,47.7
2019-05-29T15:34:40.336Z,47.6
2019-05-29T15:35:34.551Z,47.7
2019-05-29T15:35:39.313Z,47.7
2019-05-29T15:37:03.869Z,47.8
2019-05-29T15:37:52.128Z,48.1
2019-05-29T15:38:40.440Z,48.2
2019-05-29T15:40:22.394Z,47.4
2019-05-29T15:41:12.728Z,47.6
2019-05-29T15:46:09.587Z,48.8
2019-05-29T16:06:40.402Z,49.4
2019-05-29T16:08:22.336Z,49.7
2019-05-29T16:09:10.625Z,49.6
2019-05-29T16:09:59.598Z,49.6
2019-05-29T16:10:47.250Z,49.4
2019-05-29T16:11:36.642Z,49.5
2019-05-29T16:12:30.932Z,49.7
2019-05-29T16:13:18.934Z,49.5
2019-05-29T16:14:06.421Z,49.2
2019-05-29T16:23:56.295Z,49.1
2019-05-29T16:24:49.735Z,49.4
2019-05-29T16:25:40.666Z,49.2
2019-05-29T16:27:14.662Z,50.0
2019-05-29T16:31:23.038Z,49.8
2019-05-29T16:34:19.690Z,49.8
2019-05-29T16:34:35.857Z,49.4
2019-05-29T16:37:54.422Z,49.6
2019-05-29T16:39:31.023Z,49.9
2019-05-29T16:42:50.697Z,49.5
2019-05-29T16:43:38.443Z,49.7
2019-05-29T16:44:29.461Z,49.3
2019-05-29T16:45:20.471Z,49.4
2019-05-29T16:46:08.059Z,49.8
2019-05-29T16:46:56.353Z,49.2
2019-05-29T16:47:45.266Z,49.0
2019-05-29T16:49:26.617Z,49.7
2019-05-29T16:50:15.220Z,49.6
2019-05-29T16:51:03.214Z,49.4
2019-05-29T16:51:51.517Z,48.8
2019-05-29T16:52:40.384Z,48.8
2019-05-29T16:53:33.463Z,49.1
2019-05-29T16:54:23.076Z,48.9
2019-05-29T16:55:06.754Z,49.0
2019-05-29T16:57:36.607Z,48.8
2019-05-29T16:58:25.454Z,49.4
2019-05-29T16:59:13.210Z,49.0
2019-05-29T17:00:01.508Z,49.0
2019-05-29T17:00:49.781Z,48.8
2019-05-29T17:01:43.422Z,49.4
2019-05-29T17:02:32.284Z,49.2
2019-05-29T17:03:20.016Z,48.8
2019-05-29T17:04:08.362Z,48.3
2019-05-29T17:04:58.341Z,47.8
2019-05-29T17:05:50.233Z,47.9
2019-05-29T17:06:39.070Z,47.8
2019-05-29T17:07:26.852Z,47.5
2019-05-29T17:08:16.043Z,47.0
2019-05-29T17:09:03.443Z,46.9
2019-05-29T17:09:57.045Z,46.3
2019-05-29T17:10:45.977Z,46.1
2019-05-29T17:11:33.685Z,47.6
2019-05-29T17:12:22.570Z,48.0
2019-05-29T17:13:10.282Z,46.5
2019-05-29T17:14:03.894Z,47.1
2019-05-29T17:14:52.751Z,45.9
2019-05-29T17:15:40.453Z,45.8
2019-05-29T17:16:28.734Z,46.4
2019-05-29T17:17:17.021Z,46.9
2019-05-29T17:18:10.656Z,47.1
2019-05-29T17:18:59.497Z,46.4
2019-05-29T17:19:47.268Z,46.3
2019-05-29T17:20:35.536Z,46.6
2019-05-29T17:21:24.944Z,46.7
2019-05-29T17:22:18.883Z,46.8
2019-05-29T17:23:06.300Z,46.5
2019-05-29T17:23:54.043Z,46.8
2019-05-29T17:24:39.363Z,46.8
2019-05-29T17:24:41.578Z,46.8
2019-05-29T17:25:29.888Z,46.6
2019-05-29T17:26:23.540Z,47.4
2019-05-29T17:27:12.354Z,47.8
2019-05-29T17:28:00.108Z,47.0
2019-05-29T17:28:48.411Z,47.1
2019-05-29T17:29:36.708Z,46.7
2019-05-29T17:30:30.422Z,47.3
2019-05-29T17:32:07.500Z,47.1
2019-05-29T17:32:55.177Z,46.7
2019-05-29T17:33:43.457Z,47.3
2019-05-29T17:34:37.068Z,47.6
2019-05-29T17:35:25.435Z,47.2
2019-05-29T17:36:14.901Z,47.4
2019-05-29T17:37:02.016Z,47.1
2019-05-29T17:37:50.250Z,47.4
2019-05-29T17:38:43.959Z,47.2
2019-05-29T17:39:32.163Z,47.6
2019-05-29T17:40:21.455Z,48.0
2019-05-29T17:41:08.771Z,47.1
2019-05-29T17:41:57.030Z,48.1
2019-05-29T17:42:50.641Z,47.8
2019-05-29T17:43:38.939Z,48.2
2019-05-29T17:44:27.873Z,48.3
2019-05-29T17:45:19.602Z,48.1
2019-05-29T17:46:03.755Z,48.2
2019-05-29T17:46:57.379Z,48.6
2019-05-29T17:47:45.677Z,48.8
2019-05-29T17:48:34.642Z,48.5
2019-05-29T17:49:30.948Z,48.1
2019-05-29T17:50:10.717Z,48.3
2019-05-29T17:51:04.158Z,48.3
2019-05-29T17:51:52.484Z,48.9
2019-05-29T17:52:41.323Z,48.9
2019-05-29T17:53:28.996Z,48.9
2019-05-29T17:54:17.872Z,48.9
2019-05-29T17:55:10.907Z,49.0
2019-05-29T17:55:59.205Z,49.2
2019-05-29T17:56:48.090Z,49.1
2019-05-29T17:57:35.760Z,49.5
2019-05-29T17:59:22.149Z,49.9
2019-05-29T18:00:05.943Z,49.5
2019-05-29T18:00:54.198Z,48.6
2019-05-29T18:01:42.484Z,49.1
2019-05-29T18:02:31.382Z,49.2
2019-05-29T18:03:24.521Z,49.3
2019-05-29T18:04:12.677Z,49.6
2019-05-29T18:05:01.010Z,49.3
2019-05-29T18:05:27.700Z,49.3
2019-05-29T18:05:45.136Z,48.9
2019-05-29T18:06:33.932Z,48.6
2019-05-29T18:07:26.961Z,49.1
2019-05-29T18:08:16.562Z,49.3
2019-05-29T18:09:03.503Z,48.5
2019-05-29T18:09:52.500Z,48.6
2019-05-29T18:10:40.709Z,48.3
2019-05-29T18:11:33.751Z,48.8
2019-05-29T18:12:22.962Z,48.7
2019-05-29T18:13:13.345Z,48.3
2019-05-29T18:14:02.594Z,48.5
2019-05-29T18:14:47.613Z,48.4
2019-05-29T18:15:40.453Z,48.9
2019-05-29T18:16:28.691Z,48.8
2019-05-29T18:17:17.478Z,48.5
2019-05-29T18:18:05.254Z,48.5
2019-05-29T18:18:54.114Z,48.7
2019-05-29T18:19:47.147Z,49.2
2019-05-29T18:20:35.490Z,49.4
2019-05-29T18:21:25.751Z,49.8
2019-05-29T18:22:12.051Z,50.4
2019-05-29T18:23:01.459Z,49.3
2019-05-29T18:23:54.010Z,48.8
2019-05-29T18:24:42.886Z,48.7
2019-05-29T18:25:30.422Z,49.0
2019-05-29T18:26:19.838Z,49.4
2019-05-29T18:27:07.572Z,49.0
2019-05-29T18:28:02.533Z,48.8
2019-05-29T18:28:48.936Z,49.1
2019-05-29T18:29:37.131Z,48.9
2019-05-29T18:30:26.382Z,49.2
2019-05-29T18:31:14.218Z,48.5
2019-05-29T18:32:07.318Z,48.4
2019-05-29T18:32:55.577Z,49.4
2019-05-29T18:33:43.833Z,49.2
2019-05-29T18:34:32.138Z,48.5
2019-05-29T18:35:20.926Z,48.1
2019-05-29T18:36:14.040Z,48.6
2019-05-29T18:37:03.367Z,48.7
2019-05-29T18:37:50.565Z,48.4
2019-05-29T18:38:38.848Z,48.5
2019-05-29T18:39:28.451Z,48.7
2019-05-29T18:40:20.746Z,48.6
2019-05-29T18:41:09.053Z,49.1
2019-05-29T18:41:57.322Z,49.2
2019-05-29T18:42:45.622Z,49.5
2019-05-29T18:43:34.451Z,49.2
2019-05-29T18:44:27.479Z,49.4
2019-05-29T18:46:04.038Z,49.7
2019-05-29T18:46:52.354Z,49.6
2019-05-29T18:47:40.743Z,49.6
2019-05-29T18:47:59.385Z,49.6
2019-05-29T18:48:34.776Z,49.4
2019-05-29T18:50:12.714Z,49.6
2019-05-29T18:50:58.871Z,49.6
2019-05-29T18:51:47.142Z,49.9
2019-05-29T18:52:40.746Z,50.4
2019-05-29T19:01:43.246Z,52.7
2019-05-29T19:02:31.622Z,52.3
2019-05-29T19:03:19.052Z,52.4
2019-05-29T19:04:07.316Z,52.6
2019-05-29T19:05:00.924Z,52.8
2019-05-29T19:05:49.981Z,52.8
2019-05-29T19:06:37.446Z,52.8
2019-05-29T19:07:19.152Z,52.8
2019-05-29T19:07:21.586Z,52.9
2019-05-29T19:08:09.580Z,53.0
2019-05-29T19:09:03.167Z,52.9
2019-05-29T19:09:52.092Z,53.1
2019-05-29T19:10:39.732Z,52.9
2019-05-29T19:11:28.104Z,53.1
2019-05-29T19:12:16.259Z,53.2
2019-05-29T19:13:09.852Z,53.4
2019-05-29T19:13:58.739Z,53.3
2019-05-29T19:14:46.385Z,53.3
2019-05-29T19:15:34.639Z,53.4
2019-05-29T19:16:23.965Z,53.3
2019-05-29T19:17:16.518Z,53.3
2019-05-29T19:18:05.380Z,53.2
2019-05-29T19:18:53.087Z,53.2
2019-05-29T19:19:41.328Z,53.6
2019-05-29T19:20:30.497Z,53.4
2019-05-29T19:21:24.321Z,53.4
2019-05-29T19:22:12.065Z,53.5
2019-05-29T19:23:48.052Z,54.0
2019-05-29T19:24:36.286Z,54.2
2019-05-29T19:25:30.855Z,54.1
2019-05-29T19:26:18.171Z,54.3
2019-05-29T19:27:07.110Z,54.5
2019-05-29T19:27:54.664Z,54.6
2019-05-29T19:28:42.938Z,54.8
2019-05-29T19:29:36.536Z,54.7
2019-05-29T19:30:24.927Z,54.8
2019-05-29T19:31:13.655Z,54.8
2019-05-29T19:32:01.322Z,54.9
2019-05-29T19:32:49.581Z,55.1
2019-05-29T19:33:43.157Z,55.3
2019-05-29T19:34:31.632Z,55.1
2019-05-29T19:35:21.155Z,55.5
2019-05-29T19:36:07.967Z,55.7
2019-05-29T19:36:56.216Z,55.6
2019-05-29T19:37:49.803Z,55.6
2019-05-29T19:38:38.153Z,55.8
2019-05-29T19:39:28.247Z,55.8
2019-05-29T19:40:14.651Z,55.7
2019-05-29T19:41:02.903Z,55.9
2019-05-29T19:41:56.464Z,56.2
2019-05-29T19:42:44.754Z,56.0
2019-05-29T19:43:34.499Z,56.0
2019-05-29T19:44:21.236Z,56.2
2019-05-29T19:45:09.487Z,56.2
2019-05-29T19:46:03.113Z,56.4
2019-05-29T19:46:54.082Z,56.4
2019-05-29T19:47:41.112Z,56.4
2019-05-29T19:48:28.809Z,56.3
2019-05-29T19:49:16.111Z,56.5
2019-05-29T19:50:11.281Z,56.4
2019-05-29T19:50:58.008Z,56.5
2019-05-29T19:51:47.052Z,56.7
2019-05-29T19:52:35.323Z,56.9
2019-05-29T19:53:25.205Z,56.7
2019-05-29T19:54:16.404Z,56.8
2019-05-29T19:55:04.638Z,56.7
2019-05-29T19:55:53.549Z,56.8
2019-05-29T19:56:41.166Z,56.8
2019-05-29T19:57:29.912Z,56.9
2019-05-29T19:58:23.030Z,57.0
2019-05-29T19:59:11.310Z,56.7
2019-05-29T20:00:00.948Z,56.9
2019-05-29T20:00:47.860Z,56.6
2019-05-29T20:01:40.050Z,56.8
2019-05-29T20:02:30.611Z,57.1
2019-05-29T20:03:20.079Z,57.1
2019-05-29T20:04:07.114Z,57.4
2019-05-29T20:04:08.229Z,57.4
2019-05-29T20:04:46.423Z,57.5
2019-05-29T20:05:30.992Z,57.5
2019-05-29T20:05:32.860Z,57.4
2019-05-29T20:06:26.893Z,57.5
2019-05-29T20:07:14.620Z,57.4
2019-05-29T20:08:03.697Z,57.6
2019-05-29T20:08:51.656Z,57.6
2019-05-29T20:09:39.355Z,57.6
2019-05-29T20:10:33.426Z,57.7
2019-05-29T20:11:21.186Z,57.6
2019-05-29T20:12:10.045Z,57.8
2019-05-29T20:12:57.743Z,57.8
2019-05-29T20:13:46.000Z,57.8
2019-05-29T20:14:39.554Z,57.9
2019-05-29T20:15:27.871Z,57.9
2019-05-29T20:16:16.670Z,57.8
2019-05-29T20:17:04.373Z,57.7
2019-05-29T20:17:52.635Z,57.9
2019-05-29T20:18:46.222Z,57.8
2019-05-29T20:19:37.253Z,58.1
2019-05-29T20:20:23.194Z,58.0
2019-05-29T20:21:10.948Z,57.8
2019-05-29T20:21:59.217Z,57.8
2019-05-29T20:22:52.810Z,58.1
2019-05-29T20:23:41.056Z,58.0
2019-05-29T20:24:30.713Z,58.2
2019-05-29T20:25:02.125Z,58.2
2019-05-29T20:25:14.133Z,58.6
2019-05-29T20:26:01.748Z,58.5
2019-05-29T20:26:55.359Z,58.6
2019-05-29T20:27:43.613Z,58.9
2019-05-29T20:28:32.470Z,58.9
2019-05-29T20:29:20.125Z,58.9
2019-05-29T20:30:08.373Z,59.0
2019-05-29T20:31:01.991Z,58.7
2019-05-29T20:31:50.264Z,59.0
2019-05-29T20:32:39.153Z,58.9
2019-05-29T20:33:26.753Z,59.2
2019-05-29T20:34:15.032Z,59.6
2019-05-29T20:35:08.626Z,59.9
2019-05-29T20:35:56.932Z,60.4
2019-05-29T20:36:45.664Z,60.7
2019-05-29T20:37:34.052Z,61.0
2019-05-29T20:38:21.691Z,61.2
2019-05-29T20:39:15.293Z,61.6
2019-05-29T20:40:03.542Z,61.9
2019-05-29T20:40:52.348Z,62.2
2019-05-29T20:41:42.116Z,62.4
2019-05-29T20:42:28.358Z,62.7
2019-05-29T20:43:24.233Z,62.9
2019-05-29T20:44:10.140Z,63.2
2019-05-29T20:44:58.909Z,63.6
2019-05-29T20:45:46.627Z,63.7
2019-05-29T20:46:34.963Z,64.1
2019-05-29T20:47:28.444Z,64.3
2019-05-29T20:48:16.766Z,64.6
2019-05-29T20:49:05.469Z,64.8
2019-05-29T20:49:53.193Z,65.1
2019-05-29T20:50:41.420Z,65.3
2019-05-29T20:51:36.163Z,65.4
2019-05-29T20:52:23.286Z,65.6
2019-05-29T20:53:12.058Z,65.6
2019-05-29T20:53:59.809Z,65.7
2019-05-29T20:54:48.053Z,65.7
2019-05-29T20:55:41.872Z,65.9
2019-05-29T20:56:29.883Z,66.1
2019-05-29T20:57:18.625Z,66.2
2019-05-29T20:58:21.504Z,66.3
2019-05-29T20:58:54.604Z,66.3
2019-05-29T20:59:48.183Z,66.4
2019-05-29T21:00:36.437Z,66.5
2019-05-29T21:01:25.241Z,66.4
2019-05-29T21:02:12.879Z,66.5
2019-05-29T21:03:01.163Z,66.5
2019-05-29T21:03:54.698Z,66.5
2019-05-29T21:04:42.957Z,66.6
2019-05-29T21:05:32.490Z,66.8
2019-05-29T21:06:19.370Z,66.7
2019-05-29T21:07:07.613Z,66.9
2019-05-29T21:08:01.192Z,66.6
2019-05-29T21:08:49.440Z,66.5
2019-05-29T21:09:39.184Z,66.5
2019-05-29T21:10:25.909Z,66.4
2019-05-29T21:11:14.141Z,66.3
2019-05-29T21:12:07.685Z,66.3
2019-05-29T21:12:55.932Z,66.2
2019-05-29T21:13:44.699Z,66.1
2019-05-29T21:14:33.493Z,66.2
2019-05-29T21:15:20.608Z,66.1
2019-05-29T21:15:48.245Z,66.1
2019-05-29T21:16:13.881Z,66.1
2019-05-29T21:17:02.174Z,66.3
2019-05-29T21:17:51.164Z,66.2
2019-05-29T21:18:39.940Z,66.2
2019-05-29T21:19:26.816Z,66.2
2019-05-29T21:20:20.356Z,66.3
2019-05-29T21:21:08.589Z,66.2
2019-05-29T21:21:57.393Z,65.9
2019-05-29T21:22:45.133Z,65.9
2019-05-29T21:23:34.223Z,66.0
2019-05-29T21:24:26.839Z,66.2
2019-05-29T21:25:18.985Z,66.3
2019-05-29T21:26:03.889Z,66.5
2019-05-29T21:26:51.542Z,66.5
2019-05-29T21:27:43.893Z,66.7
2019-05-29T21:28:40.872Z,66.8
2019-05-29T21:28:48.120Z,66.8
2019-05-29T21:29:14.016Z,67.0
2019-05-29T21:30:02.820Z,67.2
2019-05-29T21:30:50.494Z,67.0
2019-05-29T21:31:39.528Z,67.1
2019-05-29T21:32:32.291Z,67.1
2019-05-29T21:33:20.516Z,67.3
2019-05-29T21:34:09.287Z,67.4
2019-05-29T21:34:56.941Z,67.5
2019-05-29T21:35:46.318Z,67.7
2019-05-29T21:36:39.941Z,67.7
2019-05-29T21:37:27.116Z,67.8
2019-05-29T21:38:15.891Z,68.1
2019-05-29T21:39:03.445Z,68.3
2019-05-29T21:39:51.729Z,68.2
2019-05-29T21:40:46.607Z,68.3
2019-05-29T21:41:33.529Z,68.0
2019-05-29T21:42:22.383Z,68.0
2019-05-29T21:43:58.268Z,68.3
2019-05-29T21:46:28.356Z,68.3
2019-05-29T21:47:16.589Z,68.2
2019-05-29T21:48:04.823Z,68.0
2019-05-29T21:48:59.010Z,68.0
2019-05-29T21:49:45.155Z,68.0
2019-05-29T21:49:47.312Z,68.0
2019-05-29T21:50:34.345Z,68.0
2019-05-29T21:51:22.530Z,68.0
2019-05-29T21:52:10.834Z,68.3
2019-05-29T21:53:04.898Z,68.6
2019-05-29T21:53:52.540Z,68.7
2019-05-29T21:54:41.459Z,69.0
2019-05-29T21:55:29.045Z,69.3
2019-05-29T21:56:17.231Z,69.7
2019-05-29T21:57:11.819Z,69.9
2019-05-29T21:57:59.074Z,70.2
2019-05-29T21:59:00.271Z,70.7
2019-05-29T21:59:35.483Z,71.1
2019-05-29T22:01:17.272Z,71.6
2019-05-29T22:02:06.493Z,71.6
2019-05-29T22:02:53.783Z,71.9
2019-05-29T22:03:42.368Z,72.2
2019-05-29T22:04:30.398Z,72.3
2019-05-29T22:05:23.806Z,72.2
2019-05-29T22:06:12.557Z,71.9
2019-05-29T22:07:00.195Z,72.2
2019-05-29T22:07:48.959Z,72.4
2019-05-29T22:08:36.652Z,72.3
2019-05-29T22:09:30.215Z,72.5
2019-05-29T22:10:19.039Z,72.5
2019-05-29T22:11:06.667Z,72.8
2019-05-29T22:11:54.890Z,72.8
2019-05-29T22:12:43.070Z,73.1
2019-05-29T22:13:36.632Z,73.0
2019-05-29T22:14:25.562Z,73.1
2019-05-29T22:15:13.185Z,73.2
2019-05-29T22:16:01.310Z,73.1
2019-05-29T22:16:50.778Z,73.2
2019-05-29T22:17:43.075Z,73.3
2019-05-29T22:18:31.889Z,73.1
2019-05-29T22:19:19.540Z,73.1
2019-05-29T22:20:07.723Z,73.1
2019-05-29T22:20:58.052Z,73.2
2019-05-29T22:21:50.850Z,73.4
2019-05-29T22:22:38.379Z,73.5
2019-05-29T22:23:25.927Z,73.6
2019-05-29T22:24:14.167Z,73.6
2019-05-29T22:25:02.337Z,73.9
2019-05-29T22:25:55.899Z,74.0
2019-05-29T22:26:44.729Z,74.0
2019-05-29T22:27:32.346Z,73.8
2019-05-29T22:28:20.559Z,73.9
2019-05-29T22:29:18.100Z,74.0
2019-05-29T22:30:02.843Z,73.7
2019-05-29T22:30:51.331Z,73.5
2019-05-29T22:31:38.721Z,73.5
2019-05-29T22:32:26.906Z,73.5
2019-05-29T22:33:15.135Z,73.7
2019-05-29T22:34:08.673Z,73.8
2019-05-29T22:34:57.633Z,73.9
2019-05-29T22:35:45.122Z,74.0
2019-05-29T22:36:33.278Z,74.0
2019-05-29T22:37:21.489Z,74.0
2019-05-29T22:38:15.048Z,74.1
2019-05-29T22:39:03.841Z,74.3
2019-05-29T22:39:51.546Z,74.1
2019-05-29T22:40:39.645Z,74.1
2019-05-29T22:41:27.855Z,74.3
2019-05-29T22:42:21.402Z,74.4
2019-05-29T22:43:10.199Z,74.4
2019-05-29T22:43:57.850Z,74.5
2019-05-29T22:44:46.061Z,74.7
2019-05-29T22:45:34.242Z,74.9
2019-05-29T22:46:27.811Z,74.8
2019-05-29T22:47:16.539Z,74.8
2019-05-29T22:48:04.297Z,74.5
2019-05-29T22:48:53.581Z,74.3
2019-05-29T22:49:40.644Z,74.2
2019-05-29T22:50:34.161Z,74.2
2019-05-29T22:51:22.960Z,74.3
2019-05-29T22:52:10.640Z,74.3
2019-05-29T22:52:59.863Z,74.5
2019-05-29T22:53:47.032Z,74.7
2019-05-29T22:54:40.570Z,74.7
2019-05-29T22:55:29.349Z,74.7
2019-05-29T22:56:16.960Z,74.8
2019-05-29T22:57:05.184Z,75.0
2019-05-29T22:57:53.776Z,75.1
2019-05-29T22:58:47.039Z,75.0
2019-05-29T22:59:35.716Z,75.0
2019-05-29T23:00:23.398Z,74.9
2019-05-29T23:01:11.577Z,75.1
2019-05-29T23:02:00.377Z,75.4
2019-05-29T23:02:54.035Z,75.2
2019-05-29T23:03:42.258Z,74.9
2019-05-29T23:04:29.775Z,74.5
2019-05-29T23:05:18.003Z,74.5
2019-05-29T23:06:06.181Z,74.4
2019-05-29T23:07:00.447Z,74.6
2019-05-29T23:07:48.553Z,74.7
2019-05-29T23:08:36.154Z,74.7
2019-05-29T23:09:24.338Z,74.7
2019-05-29T23:10:12.568Z,74.7
2019-05-29T23:11:06.083Z,74.8
2019-05-29T23:11:54.836Z,75.0
2019-05-29T23:12:42.468Z,75.0
2019-05-29T23:13:30.698Z,74.7
2019-05-29T23:14:19.953Z,74.6
2019-05-29T23:15:12.481Z,74.6
2019-05-29T23:16:03.114Z,75.0
2019-05-29T23:16:33.797Z,75.0
2019-05-29T23:16:44.930Z,74.8
2019-05-29T23:17:33.105Z,74.8
2019-05-29T23:18:21.305Z,74.8
2019-05-29T23:19:14.832Z,74.8
2019-05-29T23:20:04.272Z,74.7
2019-05-29T23:20:52.276Z,74.7
2019-05-29T23:21:39.470Z,74.6
2019-05-29T23:22:27.678Z,74.5
2019-05-29T23:23:21.162Z,74.8
2019-05-29T23:24:09.942Z,74.6
2019-05-29T23:24:58.763Z,74.6
2019-05-29T23:25:45.771Z,74.6
2019-05-29T23:26:33.969Z,74.9
2019-05-29T23:27:27.569Z,74.9
2019-05-29T23:28:17.506Z,74.6
2019-05-29T23:29:03.990Z,74.5
2019-05-29T23:29:52.661Z,74.5
2019-05-29T23:30:40.334Z,74.8
2019-05-29T23:31:33.904Z,74.5
2019-05-29T23:32:22.635Z,74.5
2019-05-29T23:33:10.290Z,74.5
2019-05-29T23:33:58.996Z,74.6
2019-05-29T23:34:46.665Z,74.8
2019-05-29T23:35:40.231Z,74.9
2019-05-29T23:36:28.997Z,75.0
2019-05-29T23:37:16.629Z,75.2
2019-05-29T23:38:04.865Z,75.5
2019-05-29T23:38:53.192Z,75.8
2019-05-29T23:39:46.573Z,75.9
2019-05-29T23:40:35.437Z,76.0
2019-05-29T23:41:22.977Z,76.4
2019-05-29T23:42:11.170Z,76.2
2019-05-29T23:42:59.507Z,76.0
2019-05-29T23:43:53.344Z,75.9
2019-05-29T23:44:41.720Z,75.9
2019-05-29T23:45:29.323Z,75.7
2019-05-29T23:46:17.524Z,75.7
2019-05-29T23:47:05.747Z,75.5
2019-05-29T23:48:47.501Z,75.8
2019-05-29T23:49:36.232Z,76.0
2019-05-29T23:50:23.902Z,76.1
2019-05-29T23:51:12.115Z,76.1
2019-05-29T23:52:05.654Z,76.2
2019-05-29T23:52:53.847Z,76.1
2019-05-29T23:53:42.774Z,76.1
2019-05-29T23:54:30.271Z,76.1
2019-05-29T23:55:18.534Z,76.1
2019-05-29T23:56:11.980Z,76.1
2019-05-29T23:57:00.174Z,76.1
2019-05-29T23:57:48.953Z,76.0
2019-05-29T23:58:36.595Z,76.2
2019-05-29T23:59:24.793Z,75.9
